createdAt,value
2023-03-11T00:02:07.614Z,96248.26
2023-03-11T00:07:12.204Z,96241.81
2023-03-11T00:12:17.120Z,96239.30
2023-03-11T00:17:21.151Z,96237.27
2023-03-11T00:22:22.843Z,96236.91
2023-03-11T00:27:24.882Z,96235.85
2023-03-11T00:32:26.642Z,96231.97
2023-03-11T00:37:29.104Z,96225.84
2023-03-11T00:42:31.291Z,96231.17
2023-03-11T00:47:41.303Z,96232.75
2023-03-11T00:52:48.383Z,96229.57
2023-03-11T00:57:55.512Z,96230.98
2023-03-11T01:02:59.645Z,96234.29
2023-03-11T01:08:02.161Z,96240.84
2023-03-11T01:13:04.745Z,96239.08
2023-03-11T01:18:07.484Z,96238.63
2023-03-11T01:23:11.234Z,96246.98
2023-03-11T01:28:13.344Z,96245.09
2023-03-11T01:33:19.325Z,96246.59
2023-03-11T01:38:21.032Z,96240.43
2023-03-11T01:43:45.076Z,96240.47
2023-03-11T01:48:52.599Z,96228.33
2023-03-11T01:53:57.175Z,96230.31
2023-03-11T01:58:59.926Z,96232.51
2023-03-11T02:04:03.932Z,96229.30
2023-03-11T02:09:06.718Z,96225.45
2023-03-11T02:14:09.653Z,96218.87
2023-03-11T02:19:29.766Z,96212.22
2023-03-11T02:24:50.434Z,96213.54
2023-03-11T02:29:54.166Z,96225.41
2023-03-11T02:34:57.090Z,96227.05
2023-03-11T02:40:23.878Z,96234.87
2023-03-11T02:45:30.722Z,96247.76
2023-03-11T02:50:34.565Z,96256.34
2023-03-11T02:55:36.580Z,96253.36
2023-03-11T03:00:38.622Z,96258.46
2023-03-11T03:05:42.118Z,96253.22
2023-03-11T03:10:44.085Z,96250.83
2023-03-11T03:15:46.035Z,96253.03
2023-03-11T03:20:48.060Z,96247.95
2023-03-11T03:25:52.131Z,96250.88
2023-03-11T03:30:54.537Z,96256.73
2023-03-11T03:35:57.050Z,96264.83
2023-03-11T03:41:03.749Z,96270.30
2023-03-11T03:46:06.073Z,96276.80
2023-03-11T03:51:14.548Z,96288.36
2023-03-11T03:56:51.944Z,96288.88
2023-03-11T04:01:54.537Z,96288.91
2023-03-11T04:06:57.108Z,96285.07
2023-03-11T04:12:00.208Z,96278.75
2023-03-11T04:17:02.611Z,96267.50
2023-03-11T04:22:05.038Z,96268.09
2023-03-11T04:27:06.922Z,96272.14
2023-03-11T04:32:09.827Z,96275.01
2023-03-11T04:37:11.978Z,96275.48
2023-03-11T04:42:14.199Z,96272.38
2023-03-11T04:47:18.020Z,96269.31
2023-03-11T04:52:20.054Z,96278.40
2023-03-11T04:57:22.141Z,96290.00
2023-03-11T05:02:24.353Z,96301.80
2023-03-11T05:07:29.511Z,96319.20
2023-03-11T05:12:32.698Z,96346.10
2023-03-11T05:17:35.006Z,96350.59
2023-03-11T05:22:37.882Z,96365.67
2023-03-11T05:27:40.577Z,96367.62
2023-03-11T05:32:43.084Z,96372.23
2023-03-11T05:37:44.910Z,96389.48
2023-03-11T05:42:47.395Z,96396.26
2023-03-11T05:47:49.495Z,96409.79
2023-03-11T05:52:51.984Z,96426.05
2023-03-11T05:57:54.372Z,96438.25
2023-03-11T06:02:56.554Z,96443.87
2023-03-11T06:07:58.830Z,96458.76
2023-03-11T06:13:00.695Z,96465.36
2023-03-11T06:18:06.431Z,96470.09
2023-03-11T06:23:12.280Z,96482.88
2023-03-11T06:28:14.250Z,96494.31
2023-03-11T06:33:17.992Z,96498.52
2023-03-11T06:38:20.159Z,96499.19
2023-03-11T06:43:22.290Z,96504.58
2023-03-11T06:48:25.251Z,96510.45
2023-03-11T06:53:29.255Z,96511.13
2023-03-11T06:58:32.890Z,96527.64
2023-03-11T07:03:34.902Z,96527.65
2023-03-11T07:08:36.812Z,96542.30
2023-03-11T07:13:38.617Z,96549.55
2023-03-11T07:18:40.338Z,96555.79
2023-03-11T07:23:43.322Z,96557.80
2023-03-11T07:28:45.143Z,96562.16
2023-03-11T07:33:47.549Z,96566.04
2023-03-11T07:38:54.195Z,96577.69
2023-03-11T07:43:57.597Z,96581.58
2023-03-11T07:49:01.437Z,96585.77
2023-03-11T07:54:03.736Z,96606.83
2023-03-11T07:59:05.684Z,96613.70
2023-03-11T08:04:13.982Z,96619.56
2023-03-11T08:09:16.296Z,96626.29
2023-03-11T08:14:17.978Z,96629.48
2023-03-11T08:19:19.799Z,96639.21
2023-03-11T08:24:21.791Z,96648.92
2023-03-11T08:29:24.775Z,96659.23
2023-03-11T08:34:27.701Z,96658.08
2023-03-11T08:39:29.842Z,96672.91
2023-03-11T08:44:31.621Z,96680.96
2023-03-11T08:49:34.715Z,96685.44
2023-03-11T08:54:36.423Z,96695.80
2023-03-11T08:59:38.192Z,96697.91
2023-03-11T09:04:39.904Z,96712.54
2023-03-11T09:09:41.568Z,96720.76
2023-03-11T09:14:43.903Z,96731.83
2023-03-11T09:19:45.690Z,96742.06
2023-03-11T09:24:47.320Z,96747.46
2023-03-11T09:29:49.409Z,96755.37
2023-03-11T09:34:51.240Z,96757.42
2023-03-11T09:39:52.913Z,96766.04
2023-03-11T09:45:02.909Z,96779.19
2023-03-11T09:50:17.329Z,96787.08
2023-03-11T09:55:39.769Z,96798.50
2023-03-11T10:00:42.196Z,96812.66
2023-03-11T10:05:45.475Z,96818.41
2023-03-11T10:10:57.137Z,96824.33
2023-03-11T10:16:07.865Z,96833.30
2023-03-11T10:21:16.433Z,96852.33
2023-03-11T10:26:31.397Z,96862.04
2023-03-11T10:31:50.925Z,96877.01
2023-03-11T10:37:18.764Z,96889.15
2023-03-11T10:42:25.747Z,96904.59
2023-03-11T10:47:29.359Z,96920.59
2023-03-11T10:52:31.051Z,96940.14
2023-03-11T10:57:35.016Z,96957.98
2023-03-11T11:02:49.707Z,96964.98
2023-03-11T11:08:16.972Z,96985.62
2023-03-11T11:13:21.832Z,96999.29
2023-03-11T11:18:31.264Z,97011.30
2023-03-11T11:23:44.284Z,97019.59
2023-03-11T11:28:46.489Z,97039.86
2023-03-11T11:33:48.115Z,97060.02
2023-03-11T11:38:55.623Z,97065.77
2023-03-11T11:44:02.711Z,97078.10
2023-03-11T11:49:28.861Z,97091.76
2023-03-11T11:54:38.676Z,97108.77
2023-03-11T11:59:41.059Z,97117.75
2023-03-11T12:04:50.673Z,97125.88
2023-03-11T12:09:57.696Z,97143.45
2023-03-11T12:15:29.306Z,97154.52
2023-03-11T12:20:43.709Z,97161.81
2023-03-11T12:25:58.233Z,97179.90
2023-03-11T12:31:05.892Z,97190.86
2023-03-11T12:36:30.472Z,97200.86
2023-03-11T12:41:40.118Z,97215.83
2023-03-11T12:46:54.523Z,97209.04
2023-03-11T12:52:11.578Z,97219.30
2023-03-11T12:57:16.341Z,97234.48
2023-03-11T13:02:55.508Z,97248.71
2023-03-11T13:08:03.628Z,97268.85
2023-03-11T13:13:33.698Z,97285.66
2023-03-11T13:18:35.902Z,97296.90
2023-03-11T13:23:40.617Z,97321.80
2023-03-11T13:29:01.837Z,97327.12
2023-03-11T13:34:28.110Z,97341.73
2023-03-11T13:39:38.756Z,97350.49
2023-03-11T13:44:41.705Z,97365.49
2023-03-11T13:49:59.728Z,97378.58
2023-03-11T13:55:21.340Z,97392.88
2023-03-11T14:00:29.287Z,97396.96
2023-03-11T14:05:33.491Z,97414.82
2023-03-11T14:10:35.385Z,97427.64
2023-03-11T14:15:57.775Z,97433.63
2023-03-11T14:21:00.347Z,97447.07
2023-03-11T14:26:14.205Z,97464.52
2023-03-11T14:31:34.097Z,97460.98
2023-03-11T14:36:51.066Z,97476.23
2023-03-11T14:41:58.366Z,97489.70
2023-03-11T14:47:21.202Z,97497.73
2023-03-11T14:53:10.044Z,97511.45
2023-03-11T14:58:29.729Z,97515.66
2023-03-11T15:03:35.748Z,97531.07
2023-03-11T15:08:46.341Z,97532.45
2023-03-11T15:13:51.286Z,97544.17
2023-03-11T15:18:54.438Z,97556.58
2023-03-11T15:24:06.538Z,97565.21
2023-03-11T15:29:16.754Z,97567.48
2023-03-11T15:34:18.483Z,97578.70
2023-03-11T15:39:32.577Z,97586.52
2023-03-11T15:44:37.138Z,97594.44
2023-03-11T15:49:38.999Z,97610.19
2023-03-11T15:54:40.917Z,97628.38
2023-03-11T15:59:43.673Z,97630.94
2023-03-11T16:04:45.436Z,97641.90
2023-03-11T16:09:47.427Z,97647.80
2023-03-11T16:14:50.517Z,97665.50
2023-03-11T16:19:52.194Z,97673.20
2023-03-11T16:24:54.471Z,97685.08
2023-03-11T16:29:56.789Z,97696.75
2023-03-11T16:34:58.514Z,97706.05
2023-03-11T16:40:00.243Z,97724.09
2023-03-11T16:45:03.986Z,97734.65
2023-03-11T16:50:07.203Z,97748.87
2023-03-11T16:55:09.510Z,97761.83
2023-03-11T17:00:12.581Z,97771.46
2023-03-11T17:05:14.477Z,97784.34
2023-03-11T17:10:16.442Z,97793.65
2023-03-11T17:15:18.293Z,97806.44
2023-03-11T17:20:21.582Z,97821.65
2023-03-11T17:25:23.592Z,97839.09
2023-03-11T17:30:36.350Z,97848.52
2023-03-11T17:35:38.961Z,97858.55
2023-03-11T17:40:40.821Z,97865.32
2023-03-11T17:45:42.750Z,97872.31
2023-03-11T17:50:44.445Z,97888.90
2023-03-11T17:55:46.132Z,97888.59
2023-03-11T18:00:48.033Z,97898.09
2023-03-11T18:05:57.999Z,97913.34
2023-03-11T18:11:06.571Z,97924.10
2023-03-11T18:16:40.380Z,97939.23
2023-03-11T18:21:42.105Z,97946.77
2023-03-11T18:26:43.782Z,97958.34
2023-03-11T18:31:45.763Z,97963.30
2023-03-11T18:36:49.312Z,97969.42
2023-03-11T18:41:50.949Z,97972.09
2023-03-11T18:46:52.769Z,97978.24
2023-03-11T18:51:54.508Z,97982.30
2023-03-11T18:56:56.186Z,97991.14
2023-03-11T19:01:57.983Z,97994.55
2023-03-11T19:06:59.778Z,98001.77
2023-03-11T19:12:01.652Z,98004.53
2023-03-11T19:17:03.551Z,98014.67
2023-03-11T19:22:06.000Z,98025.37
2023-03-11T19:27:07.750Z,98031.66
2023-03-11T19:32:09.518Z,98034.66
2023-03-11T19:37:11.189Z,98042.08
2023-03-11T19:42:12.882Z,98045.42
2023-03-11T19:47:14.729Z,98042.48
2023-03-11T19:52:16.675Z,98046.98
2023-03-11T19:57:18.617Z,98044.90
2023-03-11T20:02:20.396Z,98056.67
2023-03-11T20:07:22.609Z,98061.08
2023-03-11T20:12:24.817Z,98069.10
2023-03-11T20:17:26.728Z,98072.96
2023-03-11T20:22:28.472Z,98074.51
2023-03-11T20:27:30.721Z,98074.06
2023-03-11T20:32:32.714Z,98078.09
2023-03-11T20:37:34.572Z,98081.65
2023-03-11T20:42:36.436Z,98085.77
2023-03-11T20:47:43.979Z,98093.20
2023-03-11T20:52:45.888Z,98104.29
2023-03-11T20:57:49.424Z,98108.64
2023-03-11T21:02:52.316Z,98119.21
2023-03-11T21:07:54.125Z,98124.53
2023-03-11T21:12:56.017Z,98127.36
2023-03-11T21:17:57.986Z,98128.84
2023-03-11T21:22:59.742Z,98130.70
2023-03-11T21:28:01.418Z,98130.98
2023-03-11T21:33:03.204Z,98135.77
2023-03-11T21:38:05.096Z,98141.50
2023-03-11T21:43:06.937Z,98140.25
2023-03-11T21:48:10.173Z,98148.73
2023-03-11T21:53:11.937Z,98149.77
2023-03-11T21:58:14.875Z,98155.38
2023-03-11T22:03:16.620Z,98165.05
2023-03-11T22:08:18.419Z,98170.59
2023-03-11T22:13:24.898Z,98175.95
2023-03-11T22:18:27.026Z,98179.77
2023-03-11T22:23:29.098Z,98187.67
2023-03-11T22:28:30.850Z,98183.39
2023-03-11T22:33:32.713Z,98186.11
2023-03-11T22:38:36.878Z,98189.94
2023-03-11T22:43:40.337Z,98190.04
2023-03-11T22:48:42.300Z,98187.91
2023-03-11T22:54:04.005Z,98196.12
2023-03-11T22:59:05.724Z,98194.29
2023-03-11T23:04:07.705Z,98191.30
2023-03-11T23:09:09.489Z,98196.61
2023-03-11T23:14:11.176Z,98198.17
2023-03-11T23:19:13.588Z,98197.34
2023-03-11T23:24:15.264Z,98196.95
2023-03-11T23:29:16.982Z,98204.13
2023-03-11T23:34:19.018Z,98209.17
2023-03-11T23:39:20.801Z,98214.63
2023-03-11T23:44:24.063Z,98219.17
2023-03-11T23:49:27.220Z,98230.41
2023-03-11T23:54:28.926Z,98233.39
2023-03-11T23:59:30.663Z,98234.48
